sensor_id;sensor_type;location;lat;lon;timestamp;P1;durP1;ratioP1;P2;durP2;ratioP2
4420;SDS011;11824;51.178;13.546;2022-12-07T00:01:45;19.90;;;9.70;;
4420;SDS011;11824;51.178;13.546;2022-12-07T00:04:15;18.00;;;11.00;;
4420;SDS011;11824;51.178;13.546;2022-12-07T00:06:45;21.37;;;12.00;;
4420;SDS011;11824;51.178;13.546;2022-12-07T00:09:18;18.40;;;10.67;;
4420;SDS011;11824;51.178;13.546;2022-12-07T00:11:48;17.77;;;10.10;;
4420;SDS011;11824;51.178;13.546;2022-12-07T00:14:19;18.47;;;9.70;;
4420;SDS011;11824;51.178;13.546;2022-12-07T00:16:48;20.70;;;10.20;;
4420;SDS011;11824;51.178;13.546;2022-12-07T00:19:18;19.83;;;10.90;;
4420;SDS011;11824;51.178;13.546;2022-12-07T00:21:47;19.57;;;10.10;;
4420;SDS011;11824;51.178;13.546;2022-12-07T00:24:15;18.70;;;9.40;;
4420;SDS011;11824;51.178;13.546;2022-12-07T00:26:44;19.70;;;10.80;;
4420;SDS011;11824;51.178;13.546;2022-12-07T00:29:14;21.47;;;9.57;;
4420;SDS011;11824;51.178;13.546;2022-12-07T00:31:46;20.83;;;10.50;;
4420;SDS011;11824;51.178;13.546;2022-12-07T00:34:15;21.87;;;10.57;;
4420;SDS011;11824;51.178;13.546;2022-12-07T00:36:45;21.03;;;11.07;;
4420;SDS011;11824;51.178;13.546;2022-12-07T00:39:14;17.77;;;10.80;;
4420;SDS011;11824;51.178;13.546;2022-12-07T00:41:44;23.53;;;11.47;;
4420;SDS011;11824;51.178;13.546;2022-12-07T00:44:12;20.27;;;11.17;;
4420;SDS011;11824;51.178;13.546;2022-12-07T00:46:41;23.47;;;11.40;;
4420;SDS011;11824;51.178;13.546;2022-12-07T00:49:13;24.07;;;10.83;;
4420;SDS011;11824;51.178;13.546;2022-12-07T00:51:41;23.03;;;11.93;;
4420;SDS011;11824;51.178;13.546;2022-12-07T00:54:10;24.23;;;11.83;;
4420;SDS011;11824;51.178;13.546;2022-12-07T00:56:39;21.80;;;11.57;;
4420;SDS011;11824;51.178;13.546;2022-12-07T00:59:10;24.27;;;12.63;;
4420;SDS011;11824;51.178;13.546;2022-12-07T01:01:41;21.40;;;10.93;;
4420;SDS011;11824;51.178;13.546;2022-12-07T01:04:10;18.10;;;10.03;;
4420;SDS011;11824;51.178;13.546;2022-12-07T01:06:40;20.17;;;10.57;;
4420;SDS011;11824;51.178;13.546;2022-12-07T01:09:09;24.70;;;12.67;;
4420;SDS011;11824;51.178;13.546;2022-12-07T01:11:37;21.63;;;11.47;;
4420;SDS011;11824;51.178;13.546;2022-12-07T01:14:06;18.83;;;10.10;;
4420;SDS011;11824;51.178;13.546;2022-12-07T01:16:35;23.33;;;11.50;;
4420;SDS011;11824;51.178;13.546;2022-12-07T01:19:06;19.50;;;10.80;;
4420;SDS011;11824;51.178;13.546;2022-12-07T01:21:36;23.27;;;12.07;;
4420;SDS011;11824;51.178;13.546;2022-12-07T01:24:07;22.93;;;12.30;;
4420;SDS011;11824;51.178;13.546;2022-12-07T01:26:38;20.53;;;11.20;;
4420;SDS011;11824;51.178;13.546;2022-12-07T01:29:07;27.47;;;11.77;;
4420;SDS011;11824;51.178;13.546;2022-12-07T01:31:35;21.53;;;11.43;;
4420;SDS011;11824;51.178;13.546;2022-12-07T01:34:04;25.40;;;11.50;;
4420;SDS011;11824;51.178;13.546;2022-12-07T01:36:34;20.70;;;10.80;;
4420;SDS011;11824;51.178;13.546;2022-12-07T01:39:05;24.93;;;12.47;;
4420;SDS011;11824;51.178;13.546;2022-12-07T01:41:35;21.30;;;11.73;;
4420;SDS011;11824;51.178;13.546;2022-12-07T01:44:11;18.67;;;10.33;;
4420;SDS011;11824;51.178;13.546;2022-12-07T01:46:43;18.53;;;10.10;;
4420;SDS011;11824;51.178;13.546;2022-12-07T01:49:14;20.73;;;9.87;;
4420;SDS011;11824;51.178;13.546;2022-12-07T01:51:56;21.63;;;11.33;;
4420;SDS011;11824;51.178;13.546;2022-12-07T01:54:34;23.53;;;10.90;;
4420;SDS011;11824;51.178;13.546;2022-12-07T01:57:03;19.93;;;9.80;;
4420;SDS011;11824;51.178;13.546;2022-12-07T01:59:35;20.47;;;11.07;;
4420;SDS011;11824;51.178;13.546;2022-12-07T02:02:05;22.00;;;9.67;;
4420;SDS011;11824;51.178;13.546;2022-12-07T02:04:39;18.47;;;11.20;;
4420;SDS011;11824;51.178;13.546;2022-12-07T02:07:09;30.13;;;12.20;;
4420;SDS011;11824;51.178;13.546;2022-12-07T02:09:39;23.17;;;11.17;;
4420;SDS011;11824;51.178;13.546;2022-12-07T02:12:07;22.40;;;10.73;;
4420;SDS011;11824;51.178;13.546;2022-12-07T02:14:36;19.30;;;12.80;;
4420;SDS011;11824;51.178;13.546;2022-12-07T02:17:08;24.13;;;11.33;;
4420;SDS011;11824;51.178;13.546;2022-12-07T02:19:56;17.57;;;9.77;;
4420;SDS011;11824;51.178;13.546;2022-12-07T02:22:47;20.93;;;10.73;;
4420;SDS011;11824;51.178;13.546;2022-12-07T02:25:45;17.70;;;8.57;;
4420;SDS011;11824;51.178;13.546;2022-12-07T02:28:30;36.20;;;15.60;;
4420;SDS011;11824;51.178;13.546;2022-12-07T02:31:04;32.53;;;14.93;;
4420;SDS011;11824;51.178;13.546;2022-12-07T02:33:36;17.50;;;9.73;;
4420;SDS011;11824;51.178;13.546;2022-12-07T02:36:10;18.73;;;10.57;;
4420;SDS011;11824;51.178;13.546;2022-12-07T02:38:45;20.93;;;9.97;;
4420;SDS011;11824;51.178;13.546;2022-12-07T02:41:20;20.80;;;11.10;;
4420;SDS011;11824;51.178;13.546;2022-12-07T02:43:54;20.70;;;9.90;;
4420;SDS011;11824;51.178;13.546;2022-12-07T02:46:27;24.80;;;12.80;;
4420;SDS011;11824;51.178;13.546;2022-12-07T02:48:58;19.83;;;11.30;;
4420;SDS011;11824;51.178;13.546;2022-12-07T02:51:29;21.80;;;11.23;;
4420;SDS011;11824;51.178;13.546;2022-12-07T02:53:59;18.03;;;9.60;;
4420;SDS011;11824;51.178;13.546;2022-12-07T02:56:30;20.10;;;10.37;;
4420;SDS011;11824;51.178;13.546;2022-12-07T02:59:11;24.83;;;10.70;;
4420;SDS011;11824;51.178;13.546;2022-12-07T03:01:53;18.10;;;10.50;;
4420;SDS011;11824;51.178;13.546;2022-12-07T03:04:37;27.80;;;11.50;;
4420;SDS011;11824;51.178;13.546;2022-12-07T03:07:15;27.23;;;11.37;;
4420;SDS011;11824;51.178;13.546;2022-12-07T03:09:57;26.83;;;11.90;;
4420;SDS011;11824;51.178;13.546;2022-12-07T03:12:40;21.80;;;11.60;;
4420;SDS011;11824;51.178;13.546;2022-12-07T03:15:14;30.40;;;13.90;;
4420;SDS011;11824;51.178;13.546;2022-12-07T03:17:50;24.90;;;13.57;;
4420;SDS011;11824;51.178;13.546;2022-12-07T03:20:22;25.70;;;11.40;;
4420;SDS011;11824;51.178;13.546;2022-12-07T03:22:56;29.30;;;13.47;;
4420;SDS011;11824;51.178;13.546;2022-12-07T03:25:26;33.47;;;15.57;;
4420;SDS011;11824;51.178;13.546;2022-12-07T03:27:57;26.10;;;12.83;;
4420;SDS011;11824;51.178;13.546;2022-12-07T03:30:33;38.20;;;13.00;;
4420;SDS011;11824;51.178;13.546;2022-12-07T03:33:08;34.13;;;13.50;;
4420;SDS011;11824;51.178;13.546;2022-12-07T03:35:49;26.97;;;12.43;;
4420;SDS011;11824;51.178;13.546;2022-12-07T03:38:27;30.57;;;15.40;;
4420;SDS011;11824;51.178;13.546;2022-12-07T03:41:01;35.47;;;14.60;;
4420;SDS011;11824;51.178;13.546;2022-12-07T03:43:44;34.90;;;14.40;;
4420;SDS011;11824;51.178;13.546;2022-12-07T03:46:17;32.60;;;14.27;;
4420;SDS011;11824;51.178;13.546;2022-12-07T03:49:00;29.93;;;14.60;;
4420;SDS011;11824;51.178;13.546;2022-12-07T03:51:37;30.87;;;12.93;;
4420;SDS011;11824;51.178;13.546;2022-12-07T03:54:13;30.40;;;14.10;;
4420;SDS011;11824;51.178;13.546;2022-12-07T03:56:46;34.57;;;13.10;;
4420;SDS011;11824;51.178;13.546;2022-12-07T03:59:16;30.80;;;11.70;;
4420;SDS011;11824;51.178;13.546;2022-12-07T04:01:51;30.60;;;12.60;;
4420;SDS011;11824;51.178;13.546;2022-12-07T04:04:23;31.87;;;14.80;;
4420;SDS011;11824;51.178;13.546;2022-12-07T04:06:53;27.97;;;12.03;;
4420;SDS011;11824;51.178;13.546;2022-12-07T04:09:22;31.37;;;14.70;;
4420;SDS011;11824;51.178;13.546;2022-12-07T04:11:51;28.47;;;12.17;;
4420;SDS011;11824;51.178;13.546;2022-12-07T04:14:20;20.30;;;11.00;;
4420;SDS011;11824;51.178;13.546;2022-12-07T04:16:49;24.97;;;12.03;;
4420;SDS011;11824;51.178;13.546;2022-12-07T04:19:20;26.63;;;13.40;;
4420;SDS011;11824;51.178;13.546;2022-12-07T04:21:52;24.57;;;11.33;;
4420;SDS011;11824;51.178;13.546;2022-12-07T04:24:21;24.13;;;11.77;;
4420;SDS011;11824;51.178;13.546;2022-12-07T04:26:50;31.93;;;12.67;;
4420;SDS011;11824;51.178;13.546;2022-12-07T04:29:19;25.70;;;12.30;;
4420;SDS011;11824;51.178;13.546;2022-12-07T04:31:48;30.50;;;12.60;;
4420;SDS011;11824;51.178;13.546;2022-12-07T04:34:17;24.03;;;11.60;;
4420;SDS011;11824;51.178;13.546;2022-12-07T04:36:48;23.73;;;11.80;;
4420;SDS011;11824;51.178;13.546;2022-12-07T04:39:19;26.27;;;13.20;;
4420;SDS011;11824;51.178;13.546;2022-12-07T04:41:49;29.93;;;11.43;;
4420;SDS011;11824;51.178;13.546;2022-12-07T04:44:19;24.00;;;11.40;;
4420;SDS011;11824;51.178;13.546;2022-12-07T04:46:49;29.83;;;11.47;;
4420;SDS011;11824;51.178;13.546;2022-12-07T04:49:18;26.23;;;12.70;;
4420;SDS011;11824;51.178;13.546;2022-12-07T04:51:48;25.27;;;12.60;;
4420;SDS011;11824;51.178;13.546;2022-12-07T04:54:17;22.67;;;11.53;;
4420;SDS011;11824;51.178;13.546;2022-12-07T04:56:46;27.57;;;11.80;;
4420;SDS011;11824;51.178;13.546;2022-12-07T04:59:16;31.33;;;13.00;;
4420;SDS011;11824;51.178;13.546;2022-12-07T05:01:45;29.70;;;15.40;;
4420;SDS011;11824;51.178;13.546;2022-12-07T05:04:14;27.20;;;13.00;;
4420;SDS011;11824;51.178;13.546;2022-12-07T05:06:44;30.13;;;12.87;;
4420;SDS011;11824;51.178;13.546;2022-12-07T05:09:14;18.37;;;9.63;;
4420;SDS011;11824;51.178;13.546;2022-12-07T05:11:43;19.27;;;11.60;;
4420;SDS011;11824;51.178;13.546;2022-12-07T05:14:12;20.90;;;11.60;;
4420;SDS011;11824;51.178;13.546;2022-12-07T05:16:46;18.30;;;9.97;;
4420;SDS011;11824;51.178;13.546;2022-12-07T05:19:17;16.70;;;7.23;;
4420;SDS011;11824;51.178;13.546;2022-12-07T05:21:46;17.80;;;8.90;;
4420;SDS011;11824;51.178;13.546;2022-12-07T05:24:17;17.77;;;7.70;;
4420;SDS011;11824;51.178;13.546;2022-12-07T05:26:46;16.13;;;9.20;;
4420;SDS011;11824;51.178;13.546;2022-12-07T05:29:15;14.57;;;8.70;;
4420;SDS011;11824;51.178;13.546;2022-12-07T05:31:44;15.47;;;9.37;;
4420;SDS011;11824;51.178;13.546;2022-12-07T05:34:13;17.53;;;9.77;;
4420;SDS011;11824;51.178;13.546;2022-12-07T05:36:42;18.00;;;8.50;;
4420;SDS011;11824;51.178;13.546;2022-12-07T05:39:11;15.03;;;9.40;;
4420;SDS011;11824;51.178;13.546;2022-12-07T05:41:41;19.97;;;9.00;;
4420;SDS011;11824;51.178;13.546;2022-12-07T05:44:27;19.60;;;8.57;;
4420;SDS011;11824;51.178;13.546;2022-12-07T05:46:56;18.07;;;8.70;;
4420;SDS011;11824;51.178;13.546;2022-12-07T05:49:25;18.97;;;9.37;;
4420;SDS011;11824;51.178;13.546;2022-12-07T05:51:54;11.53;;;7.07;;
4420;SDS011;11824;51.178;13.546;2022-12-07T05:54:23;12.60;;;7.43;;
4420;SDS011;11824;51.178;13.546;2022-12-07T05:56:53;16.50;;;7.20;;
4420;SDS011;11824;51.178;13.546;2022-12-07T05:59:22;20.63;;;9.60;;
4420;SDS011;11824;51.178;13.546;2022-12-07T06:01:50;10.43;;;5.20;;
4420;SDS011;11824;51.178;13.546;2022-12-07T06:04:20;11.47;;;5.60;;
4420;SDS011;11824;51.178;13.546;2022-12-07T06:06:52;9.93;;;6.50;;
4420;SDS011;11824;51.178;13.546;2022-12-07T06:09:33;6.57;;;4.00;;
4420;SDS011;11824;51.178;13.546;2022-12-07T06:12:05;10.87;;;6.40;;
4420;SDS011;11824;51.178;13.546;2022-12-07T06:14:51;11.47;;;6.33;;
4420;SDS011;11824;51.178;13.546;2022-12-07T06:17:20;13.80;;;8.07;;
4420;SDS011;11824;51.178;13.546;2022-12-07T06:19:49;11.53;;;5.60;;
4420;SDS011;11824;51.178;13.546;2022-12-07T06:22:18;8.77;;;4.83;;
4420;SDS011;11824;51.178;13.546;2022-12-07T06:24:47;9.43;;;5.57;;
4420;SDS011;11824;51.178;13.546;2022-12-07T06:27:17;12.63;;;5.30;;
4420;SDS011;11824;51.178;13.546;2022-12-07T06:29:46;12.13;;;6.63;;
4420;SDS011;11824;51.178;13.546;2022-12-07T06:32:15;10.23;;;6.97;;
4420;SDS011;11824;51.178;13.546;2022-12-07T06:34:44;9.60;;;6.10;;
4420;SDS011;11824;51.178;13.546;2022-12-07T06:37:13;9.10;;;5.93;;
4420;SDS011;11824;51.178;13.546;2022-12-07T06:39:42;11.30;;;7.27;;
4420;SDS011;11824;51.178;13.546;2022-12-07T06:42:12;12.43;;;5.20;;
4420;SDS011;11824;51.178;13.546;2022-12-07T06:44:42;18.60;;;7.33;;
4420;SDS011;11824;51.178;13.546;2022-12-07T06:47:11;9.60;;;5.47;;
4420;SDS011;11824;51.178;13.546;2022-12-07T06:50:00;12.23;;;7.70;;
4420;SDS011;11824;51.178;13.546;2022-12-07T06:52:32;9.00;;;5.80;;
4420;SDS011;11824;51.178;13.546;2022-12-07T06:55:01;7.73;;;5.10;;
4420;SDS011;11824;51.178;13.546;2022-12-07T06:57:30;9.80;;;7.03;;
4420;SDS011;11824;51.178;13.546;2022-12-07T07:00:00;14.70;;;7.43;;
4420;SDS011;11824;51.178;13.546;2022-12-07T07:02:31;11.73;;;7.00;;
4420;SDS011;11824;51.178;13.546;2022-12-07T07:04:59;9.37;;;5.47;;
4420;SDS011;11824;51.178;13.546;2022-12-07T07:07:28;13.03;;;6.80;;
4420;SDS011;11824;51.178;13.546;2022-12-07T07:10:07;6.33;;;4.20;;
4420;SDS011;11824;51.178;13.546;2022-12-07T07:12:36;12.27;;;8.13;;
4420;SDS011;11824;51.178;13.546;2022-12-07T07:15:07;10.90;;;7.00;;
4420;SDS011;11824;51.178;13.546;2022-12-07T07:17:37;10.10;;;7.07;;
4420;SDS011;11824;51.178;13.546;2022-12-07T07:20:07;9.90;;;5.80;;
4420;SDS011;11824;51.178;13.546;2022-12-07T07:22:36;10.53;;;7.20;;
4420;SDS011;11824;51.178;13.546;2022-12-07T07:25:05;9.13;;;5.90;;
4420;SDS011;11824;51.178;13.546;2022-12-07T07:27:34;10.20;;;6.30;;
4420;SDS011;11824;51.178;13.546;2022-12-07T07:30:03;9.10;;;6.13;;
4420;SDS011;11824;51.178;13.546;2022-12-07T07:32:34;6.83;;;5.20;;
4420;SDS011;11824;51.178;13.546;2022-12-07T07:35:03;18.10;;;9.73;;
4420;SDS011;11824;51.178;13.546;2022-12-07T07:37:33;7.40;;;5.50;;
4420;SDS011;11824;51.178;13.546;2022-12-07T07:40:02;11.70;;;6.97;;
4420;SDS011;11824;51.178;13.546;2022-12-07T07:42:31;14.10;;;8.10;;
4420;SDS011;11824;51.178;13.546;2022-12-07T07:45:00;19.40;;;8.47;;
4420;SDS011;11824;51.178;13.546;2022-12-07T07:47:29;13.50;;;7.10;;
4420;SDS011;11824;51.178;13.546;2022-12-07T07:49:59;12.73;;;7.63;;
4420;SDS011;11824;51.178;13.546;2022-12-07T07:52:29;18.13;;;10.30;;
4420;SDS011;11824;51.178;13.546;2022-12-07T07:54:59;26.53;;;8.97;;
4420;SDS011;11824;51.178;13.546;2022-12-07T07:57:28;12.57;;;7.90;;
4420;SDS011;11824;51.178;13.546;2022-12-07T07:59:56;14.63;;;9.90;;
4420;SDS011;11824;51.178;13.546;2022-12-07T08:02:26;19.97;;;11.90;;
4420;SDS011;11824;51.178;13.546;2022-12-07T08:04:55;14.27;;;8.83;;
4420;SDS011;11824;51.178;13.546;2022-12-07T08:07:26;13.87;;;8.10;;
4420;SDS011;11824;51.178;13.546;2022-12-07T08:09:55;14.90;;;10.03;;
4420;SDS011;11824;51.178;13.546;2022-12-07T08:12:24;15.10;;;8.90;;
4420;SDS011;11824;51.178;13.546;2022-12-07T08:14:52;16.17;;;9.37;;
4420;SDS011;11824;51.178;13.546;2022-12-07T08:17:21;14.40;;;8.67;;
4420;SDS011;11824;51.178;13.546;2022-12-07T08:19:50;17.90;;;10.23;;
4420;SDS011;11824;51.178;13.546;2022-12-07T08:22:19;10.50;;;6.40;;
4420;SDS011;11824;51.178;13.546;2022-12-07T08:24:49;16.03;;;9.37;;
4420;SDS011;11824;51.178;13.546;2022-12-07T08:27:18;14.33;;;8.87;;
4420;SDS011;11824;51.178;13.546;2022-12-07T08:29:47;18.90;;;9.67;;
4420;SDS011;11824;51.178;13.546;2022-12-07T08:32:16;26.67;;;9.10;;
4420;SDS011;11824;51.178;13.546;2022-12-07T08:34:44;15.90;;;9.63;;
4420;SDS011;11824;51.178;13.546;2022-12-07T08:37:13;15.70;;;9.00;;
4420;SDS011;11824;51.178;13.546;2022-12-07T08:39:41;11.47;;;8.00;;
4420;SDS011;11824;51.178;13.546;2022-12-07T08:42:11;19.23;;;10.23;;
4420;SDS011;11824;51.178;13.546;2022-12-07T08:44:40;14.10;;;8.97;;
4420;SDS011;11824;51.178;13.546;2022-12-07T08:47:09;16.27;;;7.13;;
4420;SDS011;11824;51.178;13.546;2022-12-07T08:49:39;13.33;;;7.47;;
4420;SDS011;11824;51.178;13.546;2022-12-07T08:52:11;15.53;;;10.47;;
4420;SDS011;11824;51.178;13.546;2022-12-07T08:54:39;25.03;;;10.47;;
4420;SDS011;11824;51.178;13.546;2022-12-07T08:57:09;23.90;;;13.13;;
4420;SDS011;11824;51.178;13.546;2022-12-07T08:59:40;18.30;;;10.13;;
4420;SDS011;11824;51.178;13.546;2022-12-07T09:02:09;18.77;;;10.53;;
4420;SDS011;11824;51.178;13.546;2022-12-07T09:04:38;12.17;;;7.50;;
4420;SDS011;11824;51.178;13.546;2022-12-07T09:07:07;13.90;;;7.00;;
4420;SDS011;11824;51.178;13.546;2022-12-07T09:09:36;16.63;;;9.20;;
4420;SDS011;11824;51.178;13.546;2022-12-07T09:12:05;16.83;;;7.87;;
4420;SDS011;11824;51.178;13.546;2022-12-07T09:14:35;38.30;;;17.03;;
4420;SDS011;11824;51.178;13.546;2022-12-07T09:17:05;36.97;;;17.93;;
4420;SDS011;11824;51.178;13.546;2022-12-07T09:19:34;26.80;;;11.97;;
4420;SDS011;11824;51.178;13.546;2022-12-07T09:22:03;13.97;;;8.60;;
4420;SDS011;11824;51.178;13.546;2022-12-07T09:24:32;13.20;;;8.23;;
4420;SDS011;11824;51.178;13.546;2022-12-07T09:27:01;10.23;;;7.20;;
4420;SDS011;11824;51.178;13.546;2022-12-07T09:29:30;15.87;;;9.83;;
4420;SDS011;11824;51.178;13.546;2022-12-07T09:32:00;15.13;;;7.97;;
4420;SDS011;11824;51.178;13.546;2022-12-07T09:34:36;20.03;;;10.23;;
4420;SDS011;11824;51.178;13.546;2022-12-07T09:37:05;18.57;;;8.37;;
4420;SDS011;11824;51.178;13.546;2022-12-07T09:39:34;14.33;;;7.80;;
4420;SDS011;11824;51.178;13.546;2022-12-07T09:42:19;11.80;;;6.43;;
4420;SDS011;11824;51.178;13.546;2022-12-07T09:44:56;16.80;;;6.97;;
4420;SDS011;11824;51.178;13.546;2022-12-07T09:47:27;11.20;;;7.20;;
4420;SDS011;11824;51.178;13.546;2022-12-07T09:49:58;11.23;;;7.53;;
4420;SDS011;11824;51.178;13.546;2022-12-07T09:52:32;28.00;;;14.30;;
4420;SDS011;11824;51.178;13.546;2022-12-07T09:55:08;17.20;;;10.00;;
4420;SDS011;11824;51.178;13.546;2022-12-07T09:57:39;15.53;;;9.77;;
4420;SDS011;11824;51.178;13.546;2022-12-07T10:00:11;11.10;;;7.00;;
4420;SDS011;11824;51.178;13.546;2022-12-07T10:02:44;10.00;;;6.50;;
4420;SDS011;11824;51.178;13.546;2022-12-07T10:05:15;24.10;;;10.10;;
4420;SDS011;11824;51.178;13.546;2022-12-07T10:07:50;7.93;;;5.23;;
4420;SDS011;11824;51.178;13.546;2022-12-07T10:10:20;9.03;;;5.50;;
4420;SDS011;11824;51.178;13.546;2022-12-07T10:12:53;12.27;;;7.00;;
4420;SDS011;11824;51.178;13.546;2022-12-07T10:15:39;14.63;;;5.90;;
4420;SDS011;11824;51.178;13.546;2022-12-07T10:18:19;12.53;;;7.73;;
4420;SDS011;11824;51.178;13.546;2022-12-07T10:21:00;9.63;;;5.77;;
4420;SDS011;11824;51.178;13.546;2022-12-07T10:23:31;10.37;;;6.50;;
4420;SDS011;11824;51.178;13.546;2022-12-07T10:26:01;14.97;;;7.10;;
4420;SDS011;11824;51.178;13.546;2022-12-07T10:28:52;12.80;;;7.60;;
4420;SDS011;11824;51.178;13.546;2022-12-07T10:31:22;12.10;;;5.77;;
4420;SDS011;11824;51.178;13.546;2022-12-07T10:33:54;9.20;;;5.00;;
4420;SDS011;11824;51.178;13.546;2022-12-07T10:36:24;11.00;;;4.20;;
4420;SDS011;11824;51.178;13.546;2022-12-07T10:38:59;10.30;;;6.87;;
4420;SDS011;11824;51.178;13.546;2022-12-07T10:41:29;4.77;;;3.97;;
4420;SDS011;11824;51.178;13.546;2022-12-07T10:43:58;19.80;;;9.10;;
4420;SDS011;11824;51.178;13.546;2022-12-07T10:49:51;46.80;;;15.23;;
4420;SDS011;11824;51.178;13.546;2022-12-07T10:52:39;34.90;;;14.03;;
4420;SDS011;11824;51.178;13.546;2022-12-07T10:55:26;29.67;;;12.10;;
4420;SDS011;11824;51.178;13.546;2022-12-07T10:58:08;18.87;;;10.40;;
4420;SDS011;11824;51.178;13.546;2022-12-07T11:00:53;15.50;;;11.33;;
4420;SDS011;11824;51.178;13.546;2022-12-07T11:03:31;9.67;;;6.40;;
4420;SDS011;11824;51.178;13.546;2022-12-07T11:06:13;14.40;;;7.80;;
4420;SDS011;11824;51.178;13.546;2022-12-07T11:08:52;12.60;;;7.80;;
4420;SDS011;11824;51.178;13.546;2022-12-07T11:11:31;12.53;;;9.03;;
4420;SDS011;11824;51.178;13.546;2022-12-07T11:14:06;11.43;;;6.77;;
4420;SDS011;11824;51.178;13.546;2022-12-07T11:16:50;15.63;;;7.37;;
4420;SDS011;11824;51.178;13.546;2022-12-07T11:22:32;16.10;;;6.57;;
4420;SDS011;11824;51.178;13.546;2022-12-07T11:25:13;10.43;;;5.20;;
4420;SDS011;11824;51.178;13.546;2022-12-07T11:27:56;3.83;;;3.40;;
4420;SDS011;11824;51.178;13.546;2022-12-07T11:30:38;4.20;;;2.83;;
4420;SDS011;11824;51.178;13.546;2022-12-07T11:33:15;4.37;;;3.57;;
4420;SDS011;11824;51.178;13.546;2022-12-07T11:35:52;6.80;;;4.00;;
4420;SDS011;11824;51.178;13.546;2022-12-07T11:38:33;6.50;;;4.50;;
4420;SDS011;11824;51.178;13.546;2022-12-07T11:41:10;6.73;;;3.20;;
4420;SDS011;11824;51.178;13.546;2022-12-07T11:46:27;14.47;;;5.90;;
4420;SDS011;11824;51.178;13.546;2022-12-07T11:49:04;7.93;;;5.73;;
4420;SDS011;11824;51.178;13.546;2022-12-07T11:51:40;10.20;;;6.70;;
4420;SDS011;11824;51.178;13.546;2022-12-07T11:54:14;9.17;;;6.10;;
4420;SDS011;11824;51.178;13.546;2022-12-07T11:56:47;16.70;;;7.10;;
4420;SDS011;11824;51.178;13.546;2022-12-07T11:59:20;6.87;;;5.07;;
4420;SDS011;11824;51.178;13.546;2022-12-07T12:01:56;16.50;;;6.20;;
4420;SDS011;11824;51.178;13.546;2022-12-07T12:04:32;8.90;;;5.77;;
4420;SDS011;11824;51.178;13.546;2022-12-07T12:07:13;13.20;;;4.30;;
4420;SDS011;11824;51.178;13.546;2022-12-07T12:10:13;6.57;;;5.87;;
4420;SDS011;11824;51.178;13.546;2022-12-07T12:12:50;7.30;;;3.87;;
4420;SDS011;11824;51.178;13.546;2022-12-07T12:15:58;5.57;;;3.67;;
4420;SDS011;11824;51.178;13.546;2022-12-07T12:18:52;13.10;;;5.77;;
4420;SDS011;11824;51.178;13.546;2022-12-07T12:21:38;13.07;;;7.23;;
4420;SDS011;11824;51.178;13.546;2022-12-07T12:24:09;6.80;;;4.47;;
4420;SDS011;11824;51.178;13.546;2022-12-07T12:26:48;4.10;;;3.57;;
4420;SDS011;11824;51.178;13.546;2022-12-07T12:29:21;6.03;;;4.10;;
4420;SDS011;11824;51.178;13.546;2022-12-07T12:32:06;7.60;;;5.20;;
4420;SDS011;11824;51.178;13.546;2022-12-07T12:34:41;12.93;;;6.80;;
4420;SDS011;11824;51.178;13.546;2022-12-07T12:37:39;17.13;;;6.87;;
4420;SDS011;11824;51.178;13.546;2022-12-07T12:49:33;14.33;;;7.43;;
4420;SDS011;11824;51.178;13.546;2022-12-07T12:55:17;21.20;;;9.87;;
4420;SDS011;11824;51.178;13.546;2022-12-07T13:10:32;12.43;;;3.77;;
4420;SDS011;11824;51.178;13.546;2022-12-07T13:13:08;2.70;;;1.33;;
4420;SDS011;11824;51.178;13.546;2022-12-07T13:26:41;5.13;;;4.10;;
4420;SDS011;11824;51.178;13.546;2022-12-07T13:29:21;9.70;;;4.20;;
4420;SDS011;11824;51.178;13.546;2022-12-07T13:32:25;6.53;;;5.00;;
4420;SDS011;11824;51.178;13.546;2022-12-07T13:38:50;9.93;;;6.90;;
4420;SDS011;11824;51.178;13.546;2022-12-07T13:41:37;4.83;;;4.00;;
4420;SDS011;11824;51.178;13.546;2022-12-07T13:44:39;6.93;;;5.30;;
4420;SDS011;11824;51.178;13.546;2022-12-07T13:47:46;11.23;;;5.57;;
4420;SDS011;11824;51.178;13.546;2022-12-07T13:50:23;4.47;;;3.90;;
4420;SDS011;11824;51.178;13.546;2022-12-07T13:53:00;10.23;;;6.90;;
4420;SDS011;11824;51.178;13.546;2022-12-07T13:58:52;11.00;;;5.30;;
4420;SDS011;11824;51.178;13.546;2022-12-07T14:05:10;7.40;;;5.00;;
4420;SDS011;11824;51.178;13.546;2022-12-07T14:08:01;3.60;;;2.97;;
4420;SDS011;11824;51.178;13.546;2022-12-07T14:10:56;6.33;;;4.13;;
4420;SDS011;11824;51.178;13.546;2022-12-07T14:13:36;10.30;;;4.80;;
4420;SDS011;11824;51.178;13.546;2022-12-07T14:16:42;7.80;;;4.90;;
4420;SDS011;11824;51.178;13.546;2022-12-07T14:19:42;11.70;;;5.50;;
4420;SDS011;11824;51.178;13.546;2022-12-07T14:22:32;5.80;;;3.83;;
4420;SDS011;11824;51.178;13.546;2022-12-07T14:28:09;9.00;;;5.93;;
4420;SDS011;11824;51.178;13.546;2022-12-07T14:31:08;11.40;;;6.70;;
4420;SDS011;11824;51.178;13.546;2022-12-07T14:34:01;9.90;;;6.67;;
4420;SDS011;11824;51.178;13.546;2022-12-07T14:36:49;9.00;;;5.37;;
4420;SDS011;11824;51.178;13.546;2022-12-07T14:39:33;13.17;;;6.87;;
4420;SDS011;11824;51.178;13.546;2022-12-07T14:42:16;20.93;;;8.90;;
4420;SDS011;11824;51.178;13.546;2022-12-07T14:44:51;34.60;;;12.60;;
4420;SDS011;11824;51.178;13.546;2022-12-07T14:47:26;29.40;;;8.87;;
4420;SDS011;11824;51.178;13.546;2022-12-07T14:53:46;6.77;;;3.70;;
4420;SDS011;11824;51.178;13.546;2022-12-07T14:56:37;7.90;;;4.73;;
4420;SDS011;11824;51.178;13.546;2022-12-07T14:59:21;4.10;;;2.60;;
4420;SDS011;11824;51.178;13.546;2022-12-07T15:01:58;4.13;;;2.70;;
4420;SDS011;11824;51.178;13.546;2022-12-07T15:04:40;2.17;;;1.90;;
4420;SDS011;11824;51.178;13.546;2022-12-07T15:07:30;6.73;;;3.63;;
4420;SDS011;11824;51.178;13.546;2022-12-07T15:10:12;10.20;;;5.90;;
4420;SDS011;11824;51.178;13.546;2022-12-07T15:13:01;21.80;;;9.63;;
4420;SDS011;11824;51.178;13.546;2022-12-07T15:15:49;8.97;;;4.50;;
4420;SDS011;11824;51.178;13.546;2022-12-07T15:18:43;4.60;;;3.47;;
4420;SDS011;11824;51.178;13.546;2022-12-07T15:21:53;6.53;;;3.40;;
4420;SDS011;11824;51.178;13.546;2022-12-07T15:24:41;4.20;;;3.60;;
4420;SDS011;11824;51.178;13.546;2022-12-07T15:27:39;5.43;;;3.47;;
4420;SDS011;11824;51.178;13.546;2022-12-07T15:30:24;7.20;;;4.13;;
4420;SDS011;11824;51.178;13.546;2022-12-07T15:33:17;7.03;;;5.60;;
4420;SDS011;11824;51.178;13.546;2022-12-07T15:36:15;11.33;;;7.27;;
4420;SDS011;11824;51.178;13.546;2022-12-07T15:38:59;7.10;;;4.53;;
4420;SDS011;11824;51.178;13.546;2022-12-07T15:41:52;6.47;;;4.40;;
4420;SDS011;11824;51.178;13.546;2022-12-07T15:44:44;8.13;;;4.47;;
4420;SDS011;11824;51.178;13.546;2022-12-07T15:47:57;8.00;;;4.93;;
4420;SDS011;11824;51.178;13.546;2022-12-07T15:50:55;8.50;;;4.90;;
4420;SDS011;11824;51.178;13.546;2022-12-07T15:54:13;5.73;;;4.57;;
4420;SDS011;11824;51.178;13.546;2022-12-07T15:57:27;8.57;;;6.77;;
4420;SDS011;11824;51.178;13.546;2022-12-07T16:00:20;9.67;;;7.57;;
4420;SDS011;11824;51.178;13.546;2022-12-07T16:03:13;10.00;;;6.90;;
4420;SDS011;11824;51.178;13.546;2022-12-07T16:06:05;24.77;;;10.47;;
4420;SDS011;11824;51.178;13.546;2022-12-07T16:08:44;17.77;;;9.70;;
4420;SDS011;11824;51.178;13.546;2022-12-07T16:14:28;13.57;;;8.10;;
4420;SDS011;11824;51.178;13.546;2022-12-07T16:17:37;12.77;;;7.20;;
4420;SDS011;11824;51.178;13.546;2022-12-07T16:20:17;9.23;;;5.50;;
4420;SDS011;11824;51.178;13.546;2022-12-07T16:26:22;28.13;;;15.53;;
4420;SDS011;11824;51.178;13.546;2022-12-07T16:29:04;26.90;;;16.50;;
4420;SDS011;11824;51.178;13.546;2022-12-07T16:31:46;12.33;;;8.97;;